createdAt,value
2018-09-02T00:00:19.441Z,935.02
2018-09-02T00:01:19.431Z,935.00
2018-09-02T00:02:19.431Z,935.02
2018-09-02T00:03:19.411Z,935.01
2018-09-02T00:04:19.415Z,935.01
2018-09-02T00:05:19.394Z,935.02
2018-09-02T00:06:19.387Z,935.02
2018-09-02T00:07:19.376Z,935.09
2018-09-02T00:08:19.576Z,935.06
2018-09-02T00:09:19.371Z,935.05
2018-09-02T00:10:19.353Z,935.05
2018-09-02T00:11:19.340Z,935.06
2018-09-02T00:12:19.338Z,935.07
2018-09-02T00:13:19.323Z,935.06
2018-09-02T00:14:19.412Z,935.11
2018-09-02T00:15:19.314Z,935.07
2018-09-02T00:16:19.312Z,935.06
2018-09-02T00:17:19.296Z,935.06
2018-09-02T00:18:19.274Z,935.04
2018-09-02T00:19:19.267Z,935.07
2018-09-02T00:20:19.300Z,935.03
2018-09-02T00:21:19.251Z,935.04
2018-09-02T00:22:19.251Z,935.06
2018-09-02T00:23:19.238Z,935.06
2018-09-02T00:24:19.247Z,935.07
2018-09-02T00:25:19.215Z,935.08
2018-09-02T00:26:19.215Z,935.09
2018-09-02T00:27:19.195Z,935.09
2018-09-02T00:28:19.186Z,935.09
2018-09-02T00:29:19.195Z,935.08
2018-09-02T00:30:19.174Z,935.07
2018-09-02T00:31:19.188Z,935.06
2018-09-02T00:32:19.247Z,935.05
2018-09-02T00:33:19.165Z,935.04
2018-09-02T00:34:19.131Z,935.06
2018-09-02T00:35:19.118Z,935.04
2018-09-02T00:36:19.109Z,935.09
2018-09-02T00:37:19.104Z,935.08
2018-09-02T00:38:19.116Z,935.06
2018-09-02T00:39:19.080Z,935.11
2018-09-02T00:40:19.091Z,935.07
2018-09-02T00:41:19.094Z,935.10
2018-09-02T00:42:19.086Z,935.14
2018-09-02T00:43:19.046Z,935.10
2018-09-02T00:44:19.198Z,935.11
2018-09-02T00:45:19.025Z,935.11
2018-09-02T00:46:19.015Z,935.07
2018-09-02T00:47:19.004Z,935.06
2018-09-02T00:48:18.996Z,935.09
2018-09-02T00:49:18.986Z,935.09
2018-09-02T00:50:18.979Z,935.10
2018-09-02T00:51:18.968Z,935.11
2018-09-02T00:52:18.959Z,935.11
2018-09-02T00:53:18.953Z,935.14
2018-09-02T00:54:18.984Z,935.14
2018-09-02T00:55:18.929Z,935.14
2018-09-02T00:56:18.919Z,935.16
2018-09-02T00:57:18.910Z,935.16
2018-09-02T00:58:18.942Z,935.15
2018-09-02T00:59:18.890Z,935.19
2018-09-02T01:00:18.882Z,935.15
2018-09-02T01:01:18.934Z,935.17
2018-09-02T01:02:19.013Z,935.14
2018-09-02T01:03:18.856Z,935.15
2018-09-02T01:04:18.843Z,935.15
2018-09-02T01:05:18.833Z,935.14
2018-09-02T01:06:18.825Z,935.15
2018-09-02T01:07:18.861Z,935.13
2018-09-02T01:08:18.879Z,935.11
2018-09-02T01:09:18.797Z,935.10
2018-09-02T01:10:18.790Z,935.14
2018-09-02T01:11:18.779Z,935.09
2018-09-02T01:12:18.770Z,935.09
2018-09-02T01:13:18.822Z,935.14
2018-09-02T01:14:18.849Z,935.16
2018-09-02T01:15:18.790Z,935.16
2018-09-02T01:16:18.732Z,935.17
2018-09-02T01:17:18.721Z,935.16
2018-09-02T01:18:18.718Z,935.20
2018-09-02T01:19:18.702Z,935.18
2018-09-02T01:20:18.860Z,935.22
2018-09-02T01:21:18.688Z,935.21
2018-09-02T01:22:18.745Z,935.22
2018-09-02T01:23:18.731Z,935.25
2018-09-02T01:24:18.730Z,935.23
2018-09-02T01:25:18.651Z,935.20
2018-09-02T01:26:18.712Z,935.22
2018-09-02T01:27:18.633Z,935.25
2018-09-02T01:28:18.623Z,935.23
2018-09-02T01:29:18.684Z,935.22
2018-09-02T01:30:18.675Z,935.21
2018-09-02T01:31:18.664Z,935.21
2018-09-02T01:32:18.585Z,935.19
2018-09-02T01:33:18.576Z,935.22
2018-09-02T01:34:18.620Z,935.20
2018-09-02T01:35:18.609Z,935.19
2018-09-02T01:36:18.611Z,935.19
2018-09-02T01:37:18.604Z,935.18
2018-09-02T01:38:18.530Z,935.11
2018-09-02T01:39:18.520Z,935.11
2018-09-02T01:40:18.579Z,935.10
2018-09-02T01:41:18.573Z,935.12
2018-09-02T01:42:18.493Z,935.07
2018-09-02T01:43:18.589Z,935.09
2018-09-02T01:44:18.637Z,935.07
2018-09-02T01:45:18.530Z,935.07
2018-09-02T01:46:18.516Z,935.08
2018-09-02T01:47:18.446Z,935.08
2018-09-02T01:48:18.435Z,935.07
2018-09-02T01:49:18.486Z,935.06
2018-09-02T01:50:18.485Z,935.06
2018-09-02T01:51:18.481Z,935.05
2018-09-02T01:52:18.464Z,935.09
2018-09-02T01:53:18.388Z,935.05
2018-09-02T01:54:18.438Z,935.07
2018-09-02T01:55:18.368Z,935.09
2018-09-02T01:56:18.460Z,935.09
2018-09-02T01:57:18.350Z,935.06
2018-09-02T01:58:18.393Z,935.04
2018-09-02T01:59:18.401Z,935.08
2018-09-02T02:00:18.323Z,935.02
2018-09-02T02:01:18.312Z,935.02
2018-09-02T02:02:18.448Z,935.04
2018-09-02T02:03:18.336Z,935.00
2018-09-02T02:04:18.283Z,934.96
2018-09-02T02:05:18.345Z,934.94
2018-09-02T02:06:18.265Z,934.95
2018-09-02T02:07:18.325Z,934.96
2018-09-02T02:08:18.246Z,934.94
2018-09-02T02:09:18.304Z,934.92
2018-09-02T02:10:18.283Z,934.87
2018-09-02T02:11:18.278Z,934.91
2018-09-02T02:12:18.276Z,934.88
2018-09-02T02:13:18.257Z,934.86
2018-09-02T02:14:18.189Z,934.88
2018-09-02T02:15:18.243Z,934.87
2018-09-02T02:16:18.241Z,934.87
2018-09-02T02:17:18.160Z,934.84
2018-09-02T02:18:18.150Z,934.87
2018-09-02T02:19:18.206Z,934.86
2018-09-02T02:20:18.200Z,934.87
2018-09-02T02:21:18.122Z,934.83
2018-09-02T02:22:18.112Z,934.83
2018-09-02T02:23:18.102Z,934.81
2018-09-02T02:24:18.093Z,934.82
2018-09-02T02:25:18.142Z,934.80
2018-09-02T02:26:18.245Z,934.82
2018-09-02T02:27:18.133Z,934.81
2018-09-02T02:28:18.055Z,934.74
2018-09-02T02:29:18.045Z,934.73
2018-09-02T02:30:18.113Z,934.75
2018-09-02T02:31:18.083Z,934.73
2018-09-02T02:32:18.119Z,934.72
2018-09-02T02:33:18.008Z,934.71
2018-09-02T02:34:18.052Z,934.68
2018-09-02T02:35:18.056Z,934.68
2018-09-02T02:36:18.052Z,934.64
2018-09-02T02:37:17.970Z,934.65
2018-09-02T02:38:18.112Z,934.62
2018-09-02T02:39:18.021Z,934.62
2018-09-02T02:40:18.011Z,934.63
2018-09-02T02:41:17.991Z,934.67
2018-09-02T02:42:17.971Z,934.69
2018-09-02T02:43:17.974Z,934.67
2018-09-02T02:44:18.177Z,934.70
2018-09-02T02:45:17.955Z,934.66
2018-09-02T02:46:17.957Z,934.63
2018-09-02T02:47:17.929Z,934.67
2018-09-02T02:48:17.924Z,934.71
2018-09-02T02:49:17.928Z,934.68
2018-09-02T02:50:17.949Z,934.66
2018-09-02T02:51:17.908Z,934.68
2018-09-02T02:52:17.897Z,934.64
2018-09-02T02:53:17.889Z,934.62
2018-09-02T02:54:17.813Z,934.66
2018-09-02T02:55:17.801Z,934.62
2018-09-02T02:56:17.854Z,934.59
2018-09-02T02:57:17.783Z,934.61
2018-09-02T02:58:17.773Z,934.57
2018-09-02T02:59:17.765Z,934.55
2018-09-02T03:00:17.828Z,934.57
2018-09-02T03:01:17.815Z,934.55
2018-09-02T03:02:17.834Z,934.55
2018-09-02T03:03:17.724Z,934.52
2018-09-02T03:04:17.716Z,934.51
2018-09-02T03:05:17.706Z,934.52
2018-09-02T03:06:17.772Z,934.49
2018-09-02T03:07:17.758Z,934.47
2018-09-02T03:08:17.827Z,934.45
2018-09-02T03:09:17.671Z,934.47
2018-09-02T03:10:17.663Z,934.45
2018-09-02T03:11:17.650Z,934.45
2018-09-02T03:12:17.705Z,934.44
2018-09-02T03:13:17.686Z,934.42
2018-09-02T03:14:17.622Z,934.41
2018-09-02T03:15:17.612Z,934.38
2018-09-02T03:16:17.603Z,934.38
2018-09-02T03:17:17.651Z,934.37
2018-09-02T03:18:17.590Z,934.34
2018-09-02T03:19:17.647Z,934.37
2018-09-02T03:20:17.566Z,934.33
2018-09-02T03:21:17.557Z,934.33
2018-09-02T03:22:17.610Z,934.31
2018-09-02T03:23:17.574Z,934.29
2018-09-02T03:24:17.532Z,934.33
2018-09-02T03:25:17.574Z,934.30
2018-09-02T03:26:17.571Z,934.28
2018-09-02T03:27:17.501Z,934.32
2018-09-02T03:28:17.544Z,934.25
2018-09-02T03:29:17.484Z,934.26
2018-09-02T03:30:17.474Z,934.28
2018-09-02T03:31:17.535Z,934.26
2018-09-02T03:32:17.558Z,934.23
2018-09-02T03:33:17.514Z,934.23
2018-09-02T03:34:17.439Z,934.25
2018-09-02T03:35:17.436Z,934.22
2018-09-02T03:36:17.422Z,934.26
2018-09-02T03:37:17.413Z,934.25
2018-09-02T03:38:17.602Z,934.22
2018-09-02T03:39:17.438Z,934.22
2018-09-02T03:40:17.384Z,934.25
2018-09-02T03:41:17.371Z,934.22
2018-09-02T03:42:17.433Z,934.19
2018-09-02T03:43:17.354Z,934.16
2018-09-02T03:44:17.443Z,934.18
2018-09-02T03:45:17.333Z,934.15
2018-09-02T03:46:17.376Z,934.16
2018-09-02T03:47:17.314Z,934.18
2018-09-02T03:48:17.362Z,934.18
2018-09-02T03:49:17.295Z,934.17
2018-09-02T03:50:17.287Z,934.15
2018-09-02T03:51:17.275Z,934.15
2018-09-02T03:52:17.269Z,934.13
2018-09-02T03:53:17.258Z,934.09
2018-09-02T03:54:17.251Z,934.05
2018-09-02T03:55:17.238Z,934.04
2018-09-02T03:56:17.369Z,934.00
2018-09-02T03:57:17.291Z,934.01
2018-09-02T03:58:17.210Z,934.02
2018-09-02T03:59:17.202Z,933.99
2018-09-02T04:00:17.191Z,933.96
2018-09-02T04:01:17.182Z,933.92
2018-09-02T04:02:17.273Z,933.90
2018-09-02T04:03:17.235Z,933.82
2018-09-02T04:04:17.209Z,933.85
2018-09-02T04:05:17.223Z,933.84
2018-09-02T04:06:17.135Z,933.89
2018-09-02T04:07:17.168Z,933.84
2018-09-02T04:08:17.170Z,933.87
2018-09-02T04:09:17.177Z,933.83
2018-09-02T04:10:17.138Z,933.85
2018-09-02T04:11:17.175Z,933.86
2018-09-02T04:12:17.078Z,933.87
2018-09-02T04:13:17.069Z,933.82
2018-09-02T04:14:17.332Z,933.77
2018-09-02T04:15:17.118Z,933.77
2018-09-02T04:16:17.106Z,933.74
2018-09-02T04:17:17.120Z,933.77
2018-09-02T04:18:17.022Z,933.77
2018-09-02T04:19:17.086Z,933.75
2018-09-02T04:20:17.161Z,933.73
2018-09-02T04:21:16.996Z,933.74
2018-09-02T04:22:16.988Z,933.69
2018-09-02T04:23:17.040Z,933.71
2018-09-02T04:24:16.965Z,933.73
2018-09-02T04:25:17.029Z,933.71
2018-09-02T04:26:17.005Z,933.70
2018-09-02T04:27:16.937Z,933.66
2018-09-02T04:28:16.998Z,933.68
2018-09-02T04:29:16.987Z,933.69
2018-09-02T04:30:16.910Z,933.73
2018-09-02T04:31:16.900Z,933.72
2018-09-02T04:32:17.096Z,933.69
2018-09-02T04:33:16.883Z,933.73
2018-09-02T04:34:16.874Z,933.70
2018-09-02T04:35:16.935Z,933.72
2018-09-02T04:36:16.899Z,933.71
2018-09-02T04:37:16.907Z,933.69
2018-09-02T04:38:16.934Z,933.70
2018-09-02T04:39:16.824Z,933.68
2018-09-02T04:40:16.877Z,933.64
2018-09-02T04:41:16.874Z,933.67
2018-09-02T04:42:16.859Z,933.60
2018-09-02T04:43:16.785Z,933.64
2018-09-02T04:44:16.836Z,933.60
2018-09-02T04:45:16.823Z,933.58
2018-09-02T04:46:16.812Z,933.62
2018-09-02T04:47:16.744Z,933.58
2018-09-02T04:48:16.734Z,933.58
2018-09-02T04:49:16.726Z,933.56
2018-09-02T04:50:16.881Z,933.51
2018-09-02T04:51:16.773Z,933.47
2018-09-02T04:52:16.758Z,933.51
2018-09-02T04:53:16.693Z,933.49
2018-09-02T04:54:16.839Z,933.45
2018-09-02T04:55:16.717Z,933.44
2018-09-02T04:56:16.724Z,933.44
2018-09-02T04:57:16.650Z,933.46
2018-09-02T04:58:16.702Z,933.41
2018-09-02T04:59:16.707Z,933.37
2018-09-02T05:00:16.673Z,933.40
2018-09-02T05:01:16.659Z,933.34
2018-09-02T05:02:16.710Z,933.29
2018-09-02T05:03:16.592Z,933.32
2018-09-02T05:04:16.603Z,933.30
2018-09-02T05:05:16.579Z,933.26
2018-09-02T05:06:16.572Z,933.31
2018-09-02T05:07:16.558Z,933.31
2018-09-02T05:08:16.544Z,933.27
2018-09-02T05:09:16.537Z,933.23
2018-09-02T05:10:16.525Z,933.20
2018-09-02T05:11:16.516Z,933.19
2018-09-02T05:12:16.507Z,933.17
2018-09-02T05:13:16.500Z,933.14
2018-09-02T05:14:16.640Z,933.16
2018-09-02T05:15:16.479Z,933.17
2018-09-02T05:16:16.469Z,933.17
2018-09-02T05:17:16.458Z,933.13
2018-09-02T05:18:16.449Z,933.13
2018-09-02T05:19:16.438Z,933.12
2018-09-02T05:20:16.629Z,933.10
2018-09-02T05:21:16.420Z,933.10
2018-09-02T05:22:16.411Z,933.08
2018-09-02T05:23:16.400Z,933.08
2018-09-02T05:24:16.391Z,933.07
2018-09-02T05:25:16.382Z,933.05
2018-09-02T05:26:16.473Z,933.01
2018-09-02T05:27:16.363Z,933.05
2018-09-02T05:28:16.353Z,933.08
2018-09-02T05:29:16.344Z,933.07
2018-09-02T05:30:16.336Z,933.10
2018-09-02T05:31:16.323Z,933.09
2018-09-02T05:32:16.315Z,933.06
2018-09-02T05:33:16.305Z,933.10
2018-09-02T05:34:16.295Z,933.04
2018-09-02T05:35:16.285Z,933.03
2018-09-02T05:36:16.275Z,933.03
2018-09-02T05:37:16.268Z,933.03
2018-09-02T05:38:16.260Z,933.04
2018-09-02T05:39:16.247Z,933.03
2018-09-02T05:40:16.233Z,932.99
2018-09-02T05:41:16.230Z,932.97
2018-09-02T05:42:16.213Z,932.94
2018-09-02T05:43:16.202Z,932.96
2018-09-02T05:44:16.294Z,932.93
2018-09-02T05:45:16.190Z,932.95
2018-09-02T05:46:16.175Z,932.92
2018-09-02T05:47:16.164Z,932.94
2018-09-02T05:48:16.160Z,932.93
2018-09-02T05:49:16.150Z,932.91
2018-09-02T05:50:16.237Z,932.90
2018-09-02T05:51:16.126Z,932.87
2018-09-02T05:52:16.116Z,932.87
2018-09-02T05:53:16.113Z,932.87
2018-09-02T05:54:16.103Z,932.84
2018-09-02T05:55:16.087Z,932.81
2018-09-02T05:56:16.089Z,932.81
2018-09-02T05:57:16.068Z,932.77
2018-09-02T05:58:16.064Z,932.80
2018-09-02T05:59:16.049Z,932.82
2018-09-02T06:00:16.040Z,932.83
2018-09-02T06:01:16.059Z,932.77
2018-09-02T06:02:16.023Z,932.79
2018-09-02T06:03:16.010Z,932.79
2018-09-02T06:04:16.010Z,932.74
2018-09-02T06:05:15.991Z,932.64
2018-09-02T06:06:15.982Z,932.65
2018-09-02T06:07:15.978Z,932.69
2018-09-02T06:08:15.964Z,932.66
2018-09-02T06:09:15.962Z,932.68
2018-09-02T06:10:15.952Z,932.70
2018-09-02T06:11:15.933Z,932.67
2018-09-02T06:12:15.933Z,932.66
2018-09-02T06:13:15.924Z,932.65
2018-09-02T06:14:16.115Z,932.66
2018-09-02T06:15:15.895Z,932.64
2018-09-02T06:16:15.885Z,932.66
2018-09-02T06:17:15.960Z,932.63
2018-09-02T06:18:15.866Z,932.67
2018-09-02T06:19:15.856Z,932.67
2018-09-02T06:20:15.846Z,932.70
2018-09-02T06:21:15.850Z,932.66
2018-09-02T06:22:15.829Z,932.66
2018-09-02T06:23:15.818Z,932.69
2018-09-02T06:24:15.818Z,932.62
2018-09-02T06:25:15.798Z,932.61
2018-09-02T06:26:15.901Z,932.61
2018-09-02T06:27:15.788Z,932.59
2018-09-02T06:28:15.824Z,932.60
2018-09-02T06:29:15.759Z,932.62
2018-09-02T06:30:15.819Z,932.59
2018-09-02T06:31:15.749Z,932.57
2018-09-02T06:32:15.830Z,932.58
2018-09-02T06:33:15.730Z,932.56
2018-09-02T06:34:15.711Z,932.56
2018-09-02T06:35:15.701Z,932.56
2018-09-02T06:36:15.700Z,932.54
2018-09-02T06:37:15.682Z,932.55
2018-09-02T06:38:15.872Z,932.54
2018-09-02T06:39:15.662Z,932.54
2018-09-02T06:40:15.653Z,932.57
2018-09-02T06:41:15.643Z,932.56
2018-09-02T06:42:15.634Z,932.57
2018-09-02T06:43:15.625Z,932.57
2018-09-02T06:44:15.614Z,932.53
2018-09-02T06:45:15.604Z,932.55
2018-09-02T06:46:15.594Z,932.55
2018-09-02T06:47:15.584Z,932.55
2018-09-02T06:48:15.574Z,932.58
2018-09-02T06:49:15.568Z,932.55
2018-09-02T06:50:15.555Z,932.55
2018-09-02T06:51:15.545Z,932.57
2018-09-02T06:52:15.536Z,932.53
2018-09-02T06:53:15.527Z,932.52
2018-09-02T06:54:15.516Z,932.52
2018-09-02T06:55:15.505Z,932.55
2018-09-02T06:56:15.596Z,932.55
2018-09-02T06:57:15.486Z,932.56
2018-09-02T06:58:15.476Z,932.53
2018-09-02T06:59:15.466Z,932.54
2018-09-02T07:00:15.457Z,932.56
2018-09-02T07:01:15.447Z,932.54
2018-09-02T07:02:15.538Z,932.54
2018-09-02T07:03:15.427Z,932.54
2018-09-02T07:04:15.417Z,932.52
2018-09-02T07:05:15.408Z,932.51
2018-09-02T07:06:15.398Z,932.50
2018-09-02T07:07:15.437Z,932.53
2018-09-02T07:08:15.578Z,932.52
2018-09-02T07:09:15.369Z,932.53
2018-09-02T07:10:15.361Z,932.53
2018-09-02T07:11:15.348Z,932.58
2018-09-02T07:12:15.339Z,932.57
2018-09-02T07:13:15.329Z,932.57
2018-09-02T07:14:15.334Z,932.57
2018-09-02T07:15:15.310Z,932.54
2018-09-02T07:16:15.300Z,932.54
2018-09-02T07:17:15.289Z,932.52
2018-09-02T07:18:15.287Z,932.55
2018-09-02T07:19:15.273Z,932.52
2018-09-02T07:20:15.433Z,932.51
2018-09-02T07:21:15.252Z,932.55
2018-09-02T07:22:15.245Z,932.50
2018-09-02T07:23:15.233Z,932.50
2018-09-02T07:24:15.224Z,932.51
2018-09-02T07:25:15.212Z,932.52
2018-09-02T07:26:15.204Z,932.48
2018-09-02T07:27:15.193Z,932.51
2018-09-02T07:28:15.182Z,932.49
2018-09-02T07:29:15.172Z,932.47
2018-09-02T07:30:15.163Z,932.46
2018-09-02T07:31:15.211Z,932.48
2018-09-02T07:32:15.144Z,932.48
2018-09-02T07:33:15.135Z,932.47
2018-09-02T07:34:15.125Z,932.45
2018-09-02T07:35:15.115Z,932.46
2018-09-02T07:36:15.104Z,932.46
2018-09-02T07:37:15.095Z,932.45
2018-09-02T07:38:15.091Z,932.45
2018-09-02T07:39:15.075Z,932.50
2018-09-02T07:40:15.069Z,932.52
2018-09-02T07:41:15.058Z,932.51
2018-09-02T07:42:15.046Z,932.55
2018-09-02T07:43:15.035Z,932.55
2018-09-02T07:44:15.085Z,932.54
2018-09-02T07:45:15.016Z,932.53
2018-09-02T07:46:15.006Z,932.51
2018-09-02T07:47:14.997Z,932.47
2018-09-02T07:48:14.986Z,932.47
2018-09-02T07:49:14.977Z,932.48
2018-09-02T07:50:15.167Z,932.46
2018-09-02T07:51:14.957Z,932.43
2018-09-02T07:52:14.948Z,932.40
2018-09-02T07:53:14.938Z,932.39
2018-09-02T07:54:14.928Z,932.40
2018-09-02T07:55:14.918Z,932.41
2018-09-02T07:56:14.907Z,932.43
2018-09-02T07:57:14.898Z,932.44
2018-09-02T07:58:14.889Z,932.43
2018-09-02T07:59:14.879Z,932.45
2018-09-02T08:00:14.869Z,932.50
2018-09-02T08:01:14.859Z,932.47
2018-09-02T08:02:14.853Z,932.48
2018-09-02T08:03:14.840Z,932.50
2018-09-02T08:04:14.835Z,932.47
2018-09-02T08:05:14.823Z,932.42
2018-09-02T08:06:14.811Z,932.40
2018-09-02T08:07:14.801Z,932.42
2018-09-02T08:08:14.891Z,932.44
2018-09-02T08:09:14.782Z,932.43
2018-09-02T08:10:14.772Z,932.46
2018-09-02T08:11:14.762Z,932.45
2018-09-02T08:12:14.762Z,932.45
2018-09-02T08:13:14.743Z,932.45
2018-09-02T08:14:14.733Z,932.47
2018-09-02T08:15:14.723Z,932.41
2018-09-02T08:16:14.717Z,932.37
2018-09-02T08:17:14.704Z,932.36
2018-09-02T08:18:14.694Z,932.35
2018-09-02T08:19:14.684Z,932.33
2018-09-02T08:20:14.778Z,932.29
2018-09-02T08:21:14.665Z,932.28
2018-09-02T08:22:14.655Z,932.33
2018-09-02T08:23:14.645Z,932.32
2018-09-02T08:24:14.635Z,932.33
2018-09-02T08:25:14.627Z,932.35
2018-09-02T08:26:14.817Z,932.32
2018-09-02T08:27:14.606Z,932.33
2018-09-02T08:28:14.597Z,932.37
2018-09-02T08:29:14.588Z,932.34
2018-09-02T08:30:14.578Z,932.34
2018-09-02T08:31:14.568Z,932.35
2018-09-02T08:32:14.803Z,932.34
2018-09-02T08:33:14.549Z,932.38
2018-09-02T08:34:14.539Z,932.42
2018-09-02T08:35:14.529Z,932.44
2018-09-02T08:36:14.520Z,932.43
2018-09-02T08:37:14.510Z,932.44
2018-09-02T08:38:14.501Z,932.45
2018-09-02T08:39:14.494Z,932.49
2018-09-02T08:40:14.483Z,932.52
2018-09-02T08:41:14.473Z,932.51
2018-09-02T08:42:14.462Z,932.55
2018-09-02T08:43:14.454Z,932.53
2018-09-02T08:44:14.579Z,932.55
2018-09-02T08:45:14.433Z,932.54
2018-09-02T08:46:14.423Z,932.57
2018-09-02T08:47:14.413Z,932.55
2018-09-02T08:48:14.403Z,932.57
2018-09-02T08:49:14.394Z,932.64
2018-09-02T08:50:14.485Z,932.66
2018-09-02T08:51:14.374Z,932.63
2018-09-02T08:52:14.364Z,932.65
2018-09-02T08:53:14.355Z,932.71
2018-09-02T08:54:14.345Z,932.72
2018-09-02T08:55:14.336Z,932.71
2018-09-02T08:56:14.328Z,932.73
2018-09-02T08:57:14.316Z,932.75
2018-09-02T08:58:14.307Z,932.78
2018-09-02T08:59:14.297Z,932.78
2018-09-02T09:00:14.287Z,932.75
2018-09-02T09:01:14.278Z,932.76
2018-09-02T09:02:14.370Z,932.67
2018-09-02T09:03:14.260Z,932.65
2018-09-02T09:04:14.249Z,932.61
2018-09-02T09:05:14.238Z,932.63
2018-09-02T09:06:14.229Z,932.67
2018-09-02T09:07:14.223Z,932.66
2018-09-02T09:08:14.607Z,932.64
2018-09-02T09:09:14.360Z,932.63
2018-09-02T09:10:14.190Z,932.65
2018-09-02T09:11:14.179Z,932.64
2018-09-02T09:12:14.169Z,932.62
2018-09-02T09:13:14.159Z,932.64
2018-09-02T09:14:14.251Z,932.62
2018-09-02T09:15:14.140Z,932.62
2018-09-02T09:16:14.136Z,932.64
2018-09-02T09:17:14.159Z,932.63
2018-09-02T09:18:14.113Z,932.61
2018-09-02T09:19:14.101Z,932.60
2018-09-02T09:20:14.092Z,932.59
2018-09-02T09:21:14.082Z,932.62
2018-09-02T09:22:14.072Z,932.62
2018-09-02T09:23:14.069Z,932.63
2018-09-02T09:24:14.052Z,932.66
2018-09-02T09:25:14.050Z,932.64
2018-09-02T09:26:14.033Z,932.65
2018-09-02T09:27:14.022Z,932.64
2018-09-02T09:28:14.015Z,932.65
2018-09-02T09:29:14.005Z,932.71
2018-09-02T09:30:13.994Z,932.70
2018-09-02T09:31:13.983Z,932.71
2018-09-02T09:32:14.029Z,932.76
2018-09-02T09:33:13.971Z,932.78
2018-09-02T09:34:13.955Z,932.80
2018-09-02T09:35:13.943Z,932.85
2018-09-02T09:36:13.934Z,932.88
2018-09-02T09:37:13.927Z,932.87
2018-09-02T09:38:13.916Z,932.90
2018-09-02T09:39:13.905Z,932.93
2018-09-02T09:40:13.895Z,932.90
2018-09-02T09:41:13.886Z,932.89
2018-09-02T09:42:13.876Z,933.00
2018-09-02T09:43:13.869Z,932.97
2018-09-02T09:44:13.861Z,933.00
2018-09-02T09:45:13.847Z,932.99
2018-09-02T09:46:13.839Z,933.04
2018-09-02T09:47:13.827Z,933.00
2018-09-02T09:48:13.820Z,933.03
2018-09-02T09:49:13.813Z,933.04
2018-09-02T09:50:13.842Z,933.04
2018-09-02T09:51:13.791Z,933.01
2018-09-02T09:52:13.780Z,933.03
2018-09-02T09:53:13.772Z,933.05
2018-09-02T09:54:13.760Z,933.07
2018-09-02T09:55:13.753Z,933.03
2018-09-02T09:56:13.740Z,933.06
2018-09-02T09:57:13.733Z,933.03
2018-09-02T09:58:13.726Z,933.06
2018-09-02T09:59:13.711Z,933.11
2018-09-02T10:00:13.702Z,933.15
2018-09-02T10:01:13.696Z,933.13
2018-09-02T10:02:13.784Z,933.11
2018-09-02T10:03:13.676Z,933.10
2018-09-02T10:04:13.665Z,933.14
2018-09-02T10:05:13.655Z,933.11
2018-09-02T10:06:13.645Z,933.15
2018-09-02T10:07:13.635Z,933.15
2018-09-02T10:08:13.726Z,933.16
2018-09-02T10:09:13.617Z,933.16
2018-09-02T10:10:13.610Z,933.16
2018-09-02T10:11:13.597Z,933.10
2018-09-02T10:12:13.589Z,933.13
2018-09-02T10:13:13.579Z,933.09
2018-09-02T10:14:13.671Z,933.12
2018-09-02T10:15:13.559Z,933.11
2018-09-02T10:16:13.550Z,933.11
2018-09-02T10:17:13.561Z,933.09
2018-09-02T10:18:13.595Z,933.14
2018-09-02T10:19:13.523Z,933.12
2018-09-02T10:20:13.713Z,933.13
2018-09-02T10:21:13.504Z,933.15
2018-09-02T10:22:13.496Z,933.15
2018-09-02T10:23:13.484Z,933.12
2018-09-02T10:24:13.475Z,933.11
2018-09-02T10:25:13.467Z,933.13
2018-09-02T10:26:13.456Z,933.13
2018-09-02T10:27:13.501Z,933.16
2018-09-02T10:28:13.437Z,933.16
2018-09-02T10:29:13.428Z,933.17
2018-09-02T10:30:13.422Z,933.16
2018-09-02T10:31:13.408Z,933.16
2018-09-02T10:32:13.399Z,933.19
2018-09-02T10:33:13.399Z,933.22
2018-09-02T10:34:13.382Z,933.18
2018-09-02T10:35:13.372Z,933.20
2018-09-02T10:36:13.363Z,933.22
2018-09-02T10:37:13.353Z,933.20
2018-09-02T10:38:13.444Z,933.23
2018-09-02T10:39:13.334Z,933.19
2018-09-02T10:40:13.325Z,933.22
2018-09-02T10:41:13.448Z,933.22
2018-09-02T10:42:13.308Z,933.24
2018-09-02T10:43:13.298Z,933.24
2018-09-02T10:44:13.289Z,933.21
2018-09-02T10:45:13.282Z,933.22
2018-09-02T10:46:13.271Z,933.20
2018-09-02T10:47:13.264Z,933.22
2018-09-02T10:48:13.258Z,933.21
2018-09-02T10:49:13.244Z,933.21
2018-09-02T10:50:13.335Z,933.18
2018-09-02T10:51:13.225Z,933.21
2018-09-02T10:52:13.217Z,933.18
2018-09-02T10:53:13.208Z,933.18
2018-09-02T10:54:13.199Z,933.19
2018-09-02T10:55:13.189Z,933.20
2018-09-02T10:56:13.381Z,933.17
2018-09-02T10:57:13.171Z,933.15
2018-09-02T10:58:13.163Z,933.18
2018-09-02T10:59:13.154Z,933.21
2018-09-02T11:00:13.151Z,933.16
2018-09-02T11:01:13.139Z,933.18
2018-09-02T11:02:13.128Z,933.15
2018-09-02T11:03:13.119Z,933.17
2018-09-02T11:04:13.110Z,933.18
2018-09-02T11:05:13.101Z,933.17
2018-09-02T11:06:13.094Z,933.17
2018-09-02T11:07:13.084Z,933.17
2018-09-02T11:08:13.075Z,933.17
2018-09-02T11:09:13.066Z,933.14
2018-09-02T11:10:13.060Z,933.11
2018-09-02T11:11:13.053Z,933.13
2018-09-02T11:12:13.040Z,933.13
2018-09-02T11:13:13.089Z,933.15
2018-09-02T11:14:13.124Z,933.15
2018-09-02T11:15:13.015Z,933.11
2018-09-02T11:16:13.008Z,933.14
2018-09-02T11:17:13.002Z,933.15
2018-09-02T11:18:12.990Z,933.14
2018-09-02T11:19:12.981Z,933.18
2018-09-02T11:20:12.974Z,933.15
2018-09-02T11:21:12.964Z,933.14
2018-09-02T11:22:12.958Z,933.14
2018-09-02T11:23:12.947Z,933.12
2018-09-02T11:24:12.939Z,933.11
2018-09-02T11:25:12.931Z,933.09
2018-09-02T11:26:13.024Z,933.09
2018-09-02T11:27:12.913Z,933.13
2018-09-02T11:28:12.906Z,933.12
2018-09-02T11:29:12.897Z,933.15
2018-09-02T11:30:12.894Z,933.19
2018-09-02T11:31:12.880Z,933.14
2018-09-02T11:32:12.875Z,933.16
2018-09-02T11:33:12.863Z,933.20
2018-09-02T11:34:12.856Z,933.17
2018-09-02T11:35:12.846Z,933.14
2018-09-02T11:36:12.837Z,933.16
2018-09-02T11:37:12.833Z,933.16
2018-09-02T11:38:12.822Z,933.18
2018-09-02T11:39:12.819Z,933.18
2018-09-02T11:40:12.807Z,933.16
2018-09-02T11:41:12.797Z,933.20
2018-09-02T11:42:12.789Z,933.22
2018-09-02T11:43:12.782Z,933.25
2018-09-02T11:44:12.872Z,933.28
2018-09-02T11:45:12.830Z,933.32
2018-09-02T11:46:12.756Z,933.31
2018-09-02T11:47:12.748Z,933.33
2018-09-02T11:48:12.739Z,933.39
2018-09-02T11:49:12.732Z,933.41
2018-09-02T11:50:12.826Z,933.47
2018-09-02T11:51:12.716Z,933.48
2018-09-02T11:52:12.709Z,933.47
2018-09-02T11:53:12.700Z,933.46
2018-09-02T11:54:12.697Z,933.48
2018-09-02T11:55:12.685Z,933.48
2018-09-02T11:56:12.677Z,933.48
2018-09-02T11:57:12.670Z,933.50
2018-09-02T11:58:12.664Z,933.48
2018-09-02T11:59:12.655Z,933.53
2018-09-02T12:00:12.657Z,933.57
2018-09-02T12:01:12.641Z,933.55
2018-09-02T12:02:12.642Z,933.57
2018-09-02T12:03:12.635Z,933.57
2018-09-02T12:04:12.619Z,933.56
2018-09-02T12:05:12.613Z,933.63
2018-09-02T12:06:12.605Z,933.59
2018-09-02T12:07:12.599Z,933.58
2018-09-02T12:08:12.599Z,933.57
2018-09-02T12:09:12.592Z,933.59
2018-09-02T12:10:12.588Z,933.55
2018-09-02T12:11:12.568Z,933.55
2018-09-02T12:12:12.571Z,933.54
2018-09-02T12:13:12.556Z,933.58
2018-09-02T12:14:12.659Z,933.56
2018-09-02T12:15:12.542Z,933.58
2018-09-02T12:16:12.545Z,933.57
2018-09-02T12:17:12.539Z,933.60
2018-09-02T12:18:12.533Z,933.54
2018-09-02T12:19:12.526Z,933.55
2018-09-02T12:20:12.621Z,933.58
2018-09-02T12:21:12.515Z,933.56
2018-09-02T12:22:12.509Z,933.61
2018-09-02T12:23:12.501Z,933.57
2018-09-02T12:24:12.496Z,933.62
2018-09-02T12:25:12.490Z,933.59
2018-09-02T12:26:12.475Z,933.61
2018-09-02T12:27:12.480Z,933.63
2018-09-02T12:28:12.464Z,933.64